KERO2: Robert S. Kerr Lock & Dam & Reservoir (L&D 15)

Data processed at Tue Aug 21 2018 22:41


All information presented herein is the property of the government of the United States of America and may be revised or deleted at any time without prior notice.
Dissemination of this information without the expressed written consent of the Public Affairs Office, Tulsa District U.S. Army Corps of Engineers is strictly prohibited.
These data are gathered electronically and, as presented, have not undergone any form of quality control. These data are not guaranteed to be valid or correct.
Go to home page.
Go to station list.

Upstream stations:

Downstream station:
Previous Day
Next Day
Current Day
    
SHEF ID:       KERO2     RS Kerr LD15
STATION TYPE:  NAVIGATION LOCK
Normal Pool:  Bottom =   458.00, Top =   460.00

               PRECIP ELEVATION   STORAGE   TW-ELEV    INFLOW   RELEASE  AIR-TEMP  WIND-DIRWIND-SPEED REL-HUMID SOLAR-RAD   VOLTAGE  BAT-LOAD
                   in        ft     ac-ft        ft       cfs       cfs         F       deg       mph         %      W/m2      volt      volt
              Ccp-Rev   Ccp-Rev   Ccp-Rev   Ccp-Rev  Regi-Rev  Regi-Rev   Ccp-Rev   Ccp-Rev   Ccp-Rev   Ccp-Rev   Ccp-Rev   Ccp-Rev   Ccp-Rev
(US/Central)
08/21 00:00      0.00    459.37    498537    412.65     22334     14700     75.09    191.20      6.98     75.72      0.00     13.86     13.42
08/21 01:00      0.00    459.39    499399    412.66     23044     14700     75.18    224.70      8.00     75.28      0.00     13.86     13.48
08/21 02:00      0.00    459.40    499830    412.68     19735     14700     74.08    231.70      7.62     81.08      0.00     13.86     13.42
08/21 03:00      0.00    459.43    501123    412.71     16030     14700     73.09    260.40      8.58     82.43      0.00     13.87     13.36
08/21 04:00      0.00    459.47    502847    412.72     11265     14700     70.79    269.40      8.69     81.70      0.00     13.88     13.48
08/21 05:00      0.00    459.47    502847    412.75      7282     14700     71.02    263.00      8.61     80.06      0.00     13.86     13.48
08/21 06:00      0.00    459.49    503709    412.75      1736     14700     69.58    268.40      9.55     81.70      1.00     13.86     13.48
08/21 07:00      0.00    459.44    501554    413.33      1214     14700     69.04    269.00      6.61     84.21      2.00     13.86     13.36
08/21 08:00      0.00    459.45    501985    413.45       935     22400     70.34    261.20      6.80     81.57     99.00     13.86     13.48
08/21 09:00      0.00    459.44    501554    413.36       674     22400     72.00    264.10      6.57     79.44    301.00     13.86     13.48
08/21 10:00      0.00    459.44    501554    413.41       674     22400     74.52    265.30      7.02     78.28    516.00     13.88     13.48
08/21 11:00      0.00    459.44    501554    413.44      -901      -901     77.29    290.90      8.69     65.89    716.00     13.86     13.36
08/21 12:00      0.00    459.40    499830    413.36      -901      -901     79.57    289.70      8.63     62.22    844.00     13.87     13.42
08/21 13:00      0.00    459.52    505002    413.48      -901      -901     80.78    283.40      8.00     59.29    871.00     13.87     13.48
08/21 14:00      0.00    459.41    500261    413.47      -901      -901     82.98    299.10      7.02     55.93    951.00     13.87     13.42
08/21 15:00      0.00    459.35    497675    413.54      -901      -901     82.33    275.80      6.81     56.78    862.00     13.86     13.42
08/21 16:00      0.00    459.32    496382    413.61      -901      -901     82.87    294.80      6.49     57.33    797.00     13.88     13.42
08/21 17:00      0.00    459.32    496382    413.56      -901      -901     83.62    306.30      7.09     57.02    605.00     13.88     13.48
08/21 18:00      0.00    459.33    496813    413.53      -901      -901     83.52    311.80      5.44     58.12    500.00     13.90     13.42
08/21 19:00      0.00    459.31    495951    413.40      -901      -901     82.20    312.10      4.66     59.34    251.00     13.89     13.48
08/21 20:00      0.00    459.30    495520    413.29      -901      -901     79.02    289.70      1.86     68.19     65.00     13.89     13.42
08/21 21:00      0.00    459.30    495520    413.19      -901      -901     75.25    310.20      1.11     82.77      1.00     13.89     13.42
08/21 22:00      0.00    459.30    495520    413.08      -901      -901     75.60    265.70      0.65     75.76      0.00     13.89     13.42
08/21 23:00      ----      ----      ----      ----      ----      ----      ----      ----      ----      ----      ----      ----      ----